Time;durP1;ratioP1;P1;durP2;ratioP2;P2;SDS_P1;SDS_P2;PMS_P1;PMS_P2;Temp;Humidity;BMP_temperature;BMP_pressure;BME280_temperature;BME280_humidity;BME280_pressure;Samples;Min_cycle;Max_cycle;Signal;HPM_P1;HPM_P2
2021/09/15 00:01:12;;;;;;;64.55;43.85;;;;;;;;;;5082371;28;20075;-69
2021/09/15 00:03:39;;;;;;;64.47;45.65;;;;;;;;;;5077479;28;20048;-69
2021/09/15 00:06:05;;;;;;;81.13;48.75;;;;;;;;;;5084740;28;20059;-70
2021/09/15 00:08:32;;;;;;;62.42;43.60;;;;;;;;;;5080044;28;20047;-70
2021/09/15 00:10:59;;;;;;;58.03;44.13;;;;;;;;;;5059835;28;20048;-69
2021/09/15 00:13:25;;;;;;;58.70;41.40;;;;;;;;;;5097279;28;20124;-69
2021/09/15 00:15:51;;;;;;;55.53;41.50;;;;;;;;;;5088227;28;20347;-70
2021/09/15 00:18:17;;;;;;;53.40;41.58;;;;;;;;;;5082164;28;20566;-69
2021/09/15 00:20:43;;;;;;;52.65;40.95;;;;;;;;;;5083339;28;20055;-69
2021/09/15 00:23:10;;;;;;;73.40;47.53;;;;;;;;;;5096156;28;20391;-69
2021/09/15 00:25:36;;;;;;;60.85;43.35;;;;;;;;;;5079594;28;20054;-69
2021/09/15 00:28:02;;;;;;;56.63;42.72;;;;;;;;;;5077291;28;20036;-69
2021/09/15 00:30:28;;;;;;;63.30;45.17;;;;;;;;;;5098927;28;20499;-69
2021/09/15 00:32:54;;;;;;;56.83;42.63;;;;;;;;;;5102792;28;20097;-69
2021/09/15 00:35:21;;;;;;;57.55;40.45;;;;;;;;;;5095136;28;20050;-69
2021/09/15 00:37:47;;;;;;;50.17;38.58;;;;;;;;;;5099456;28;20031;-69
2021/09/15 00:40:13;;;;;;;60.35;41.63;;;;;;;;;;5074715;28;20044;-69
2021/09/15 00:42:39;;;;;;;71.43;46.58;;;;;;;;;;5077437;28;20488;-69
2021/09/15 00:45:06;;;;;;;56.40;42.35;;;;;;;;;;5079708;28;20067;-69
2021/09/15 00:47:32;;;;;;;55.83;42.13;;;;;;;;;;5099131;28;20127;-69
2021/09/15 00:49:58;;;;;;;54.92;42.83;;;;;;;;;;5078902;28;20117;-69
2021/09/15 00:52:25;;;;;;;49.70;38.85;;;;;;;;;;5098085;28;20835;-70
2021/09/15 00:54:52;;;;;;;41.10;35.13;;;;;;;;;;5100516;28;20097;-69
2021/09/15 00:57:18;;;;;;;51.72;38.47;;;;;;;;;;5079530;28;20470;-69
2021/09/15 00:59:45;;;;;;;47.88;36.33;;;;;;;;;;5099104;28;20043;-69
2021/09/15 01:02:11;;;;;;;50.63;37.58;;;;;;;;;;5098319;28;20048;-69
2021/09/15 01:04:38;;;;;;;47.35;36.00;;;;;;;;;;5096467;28;20399;-69
2021/09/15 01:07:04;;;;;;;52.28;38.38;;;;;;;;;;5077233;28;20048;-69
2021/09/15 01:09:31;;;;;;;58.53;40.15;;;;;;;;;;5081103;28;20379;-69
2021/09/15 01:11:59;;;;;;;45.58;37.83;;;;;;;;;;5084771;28;20065;-69
2021/09/15 01:14:25;;;;;;;47.47;38.63;;;;;;;;;;5104880;28;20037;-69
2021/09/15 01:16:52;;;;;;;47.45;37.95;;;;;;;;;;5089029;28;20039;-69
2021/09/15 01:19:21;;;;;;;44.78;35.50;;;;;;;;;;5066704;28;20047;-69
2021/09/15 01:21:48;;;;;;;49.75;37.03;;;;;;;;;;5083763;28;20086;-69
2021/09/15 01:24:14;;;;;;;49.67;38.72;;;;;;;;;;5085888;28;20044;-69
2021/09/15 01:26:40;;;;;;;76.00;43.83;;;;;;;;;;5102979;28;20511;-69
2021/09/15 01:29:06;;;;;;;56.65;42.22;;;;;;;;;;5099612;28;20036;-69
2021/09/15 01:31:33;;;;;;;50.33;39.78;;;;;;;;;;5098231;28;20103;-69
2021/09/15 01:33:59;;;;;;;39.60;33.85;;;;;;;;;;5083048;28;20051;-69
2021/09/15 01:36:25;;;;;;;43.97;35.55;;;;;;;;;;5087372;28;20085;-69
2021/09/15 01:38:51;;;;;;;45.28;36.35;;;;;;;;;;5076575;28;20051;-69
2021/09/15 01:41:17;;;;;;;43.83;33.80;;;;;;;;;;5077804;28;20492;-69
2021/09/15 01:43:50;;;;;;;44.00;36.97;;;;;;;;;;5079767;28;20387;-69
2021/09/15 01:46:16;;;;;;;39.47;34.17;;;;;;;;;;5083323;28;20052;-69
2021/09/15 01:48:43;;;;;;;40.45;34.25;;;;;;;;;;5077986;28;20044;-69
2021/09/15 01:51:09;;;;;;;42.53;35.65;;;;;;;;;;5079394;28;20044;-69
2021/09/15 01:53:36;;;;;;;55.67;37.90;;;;;;;;;;5081125;28;20036;-69
2021/09/15 01:56:02;;;;;;;60.90;39.50;;;;;;;;;;5082686;28;20052;-69
2021/09/15 01:58:28;;;;;;;55.53;37.97;;;;;;;;;;5080207;28;20119;-69
2021/09/15 02:00:54;;;;;;;37.95;33.47;;;;;;;;;;5082077;28;20423;-69
2021/09/15 02:03:21;;;;;;;45.05;36.05;;;;;;;;;;5062837;28;20508;-69
2021/09/15 02:05:47;;;;;;;46.85;36.00;;;;;;;;;;5082573;28;20102;-69
2021/09/15 02:08:13;;;;;;;38.55;33.03;;;;;;;;;;5079301;28;20709;-69
2021/09/15 02:10:39;;;;;;;56.60;36.10;;;;;;;;;;5076527;28;20496;-69
2021/09/15 02:13:05;;;;;;;41.80;30.92;;;;;;;;;;5077644;28;20119;-69
2021/09/15 02:15:31;;;;;;;55.92;32.10;;;;;;;;;;5080575;28;20040;-69
2021/09/15 02:17:57;;;;;;;58.65;34.70;;;;;;;;;;5082417;28;20043;-69
2021/09/15 02:20:24;;;;;;;40.85;31.40;;;;;;;;;;5077849;28;20062;-69
2021/09/15 02:22:50;;;;;;;51.65;34.63;;;;;;;;;;5077863;28;20437;-69
2021/09/15 02:25:16;;;;;;;141.98;36.35;;;;;;;;;;5080588;28;20047;-69
2021/09/15 02:27:42;;;;;;;141.20;33.47;;;;;;;;;;5077875;28;20052;-69
2021/09/15 02:30:09;;;;;;;165.95;32.35;;;;;;;;;;5077217;28;20052;-69
2021/09/15 02:32:35;;;;;;;119.05;32.47;;;;;;;;;;5081894;28;20047;-69
2021/09/15 02:35:01;;;;;;;145.75;28.38;;;;;;;;;;5105252;28;20070;-69
2021/09/15 02:37:27;;;;;;;258.80;29.83;;;;;;;;;;5100477;28;20102;-69
2021/09/15 02:39:54;;;;;;;263.98;32.50;;;;;;;;;;5079929;28;20136;-69
2021/09/15 02:42:20;;;;;;;286.10;28.73;;;;;;;;;;5099533;28;20108;-69
2021/09/15 02:44:46;;;;;;;205.55;25.52;;;;;;;;;;5080681;28;20056;-69
2021/09/15 02:47:12;;;;;;;51.33;24.98;;;;;;;;;;5082255;28;20126;-69
2021/09/15 02:49:38;;;;;;;59.75;30.13;;;;;;;;;;5100046;28;20096;-69
2021/09/15 02:52:05;;;;;;;112.13;29.88;;;;;;;;;;5101137;28;20387;-69
2021/09/15 02:54:31;;;;;;;131.13;26.75;;;;;;;;;;5097110;28;20039;-69
2021/09/15 02:56:57;;;;;;;125.93;27.60;;;;;;;;;;5100408;28;20426;-69
2021/09/15 02:59:23;;;;;;;245.88;26.42;;;;;;;;;;5097756;28;20553;-69
2021/09/15 03:01:49;;;;;;;77.10;21.85;;;;;;;;;;5082876;28;20058;-69
2021/09/15 03:04:16;;;;;;;151.25;26.30;;;;;;;;;;5096785;28;20380;-69
2021/09/15 03:06:42;;;;;;;149.30;24.42;;;;;;;;;;5103169;28;20096;-69
2021/09/15 03:09:08;;;;;;;321.77;29.08;;;;;;;;;;5082405;28;20071;-69
2021/09/15 03:11:34;;;;;;;479.38;32.53;;;;;;;;;;5079322;28;20101;-69
2021/09/15 03:14:00;;;;;;;409.63;31.02;;;;;;;;;;5077439;28;20082;-69
2021/09/15 03:16:26;;;;;;;381.35;38.88;;;;;;;;;;5078424;28;20080;-69
2021/09/15 03:18:52;;;;;;;371.38;36.58;;;;;;;;;;5079475;28;20047;-69
2021/09/15 03:21:19;;;;;;;438.35;37.08;;;;;;;;;;5097307;28;20039;-69
2021/09/15 03:23:45;;;;;;;432.15;37.58;;;;;;;;;;5078573;28;20105;-69
2021/09/15 03:26:11;;;;;;;505.33;42.88;;;;;;;;;;5101354;28;20069;-69
2021/09/15 03:28:37;;;;;;;418.95;42.75;;;;;;;;;;5094823;28;20131;-69
2021/09/15 03:31:03;;;;;;;350.10;40.78;;;;;;;;;;5086362;28;20043;-69
2021/09/15 03:33:30;;;;;;;458.63;55.25;;;;;;;;;;5097545;28;20052;-70
2021/09/15 03:35:56;;;;;;;250.32;42.22;;;;;;;;;;5075811;28;20513;-68
2021/09/15 03:38:22;;;;;;;255.90;43.63;;;;;;;;;;5103460;28;20040;-69
2021/09/15 03:40:48;;;;;;;210.95;41.75;;;;;;;;;;5103200;28;20044;-69
2021/09/15 03:43:15;;;;;;;291.95;42.95;;;;;;;;;;5084367;28;20467;-69
2021/09/15 03:45:41;;;;;;;285.65;43.72;;;;;;;;;;5088547;28;20066;-69
2021/09/15 03:48:07;;;;;;;299.02;44.60;;;;;;;;;;5098744;28;20063;-69
2021/09/15 03:50:33;;;;;;;408.08;46.35;;;;;;;;;;5100161;28;20479;-69
2021/09/15 03:52:59;;;;;;;299.10;42.55;;;;;;;;;;5098876;28;20032;-69
2021/09/15 03:55:25;;;;;;;298.85;42.22;;;;;;;;;;5083389;28;20146;-69
2021/09/15 03:57:52;;;;;;;412.20;47.60;;;;;;;;;;5083999;28;20040;-69
2021/09/15 04:00:18;;;;;;;446.38;41.03;;;;;;;;;;5105485;28;20039;-69
2021/09/15 04:02:44;;;;;;;414.85;39.35;;;;;;;;;;5082036;28;20067;-69
2021/09/15 04:05:10;;;;;;;362.15;36.83;;;;;;;;;;5082990;28;20139;-69
2021/09/15 04:07:37;;;;;;;281.63;35.85;;;;;;;;;;5080255;28;20085;-69
2021/09/15 04:10:04;;;;;;;207.52;35.20;;;;;;;;;;5076557;28;20492;-69
2021/09/15 04:12:30;;;;;;;202.02;38.75;;;;;;;;;;5100917;28;20150;-69
2021/09/15 04:14:56;;;;;;;78.95;36.88;;;;;;;;;;5080230;28;20039;-69
2021/09/15 04:17:22;;;;;;;82.95;39.85;;;;;;;;;;5100754;28;20078;-69
2021/09/15 04:19:49;;;;;;;62.30;40.88;;;;;;;;;;5084565;28;20039;-69
2021/09/15 04:22:18;;;;;;;63.97;41.42;;;;;;;;;;5102911;28;20471;-69
2021/09/15 04:33:02;;;;;;;63.03;41.75;;;;;;;;;;5077884;28;20043;-69
2021/09/15 04:35:28;;;;;;;66.07;43.85;;;;;;;;;;5083571;28;20336;-69
2021/09/15 04:37:55;;;;;;;76.03;44.88;;;;;;;;;;5095879;28;20048;-69
2021/09/15 04:40:21;;;;;;;82.35;45.00;;;;;;;;;;5075895;28;20047;-69
2021/09/15 04:42:47;;;;;;;91.15;47.58;;;;;;;;;;5094987;28;20055;-69
2021/09/15 04:45:15;;;;;;;103.28;51.47;;;;;;;;;;5098874;28;20047;-69
2021/09/15 04:47:41;;;;;;;137.52;57.67;;;;;;;;;;5100602;28;20047;-69
2021/09/15 04:50:07;;;;;;;107.72;54.90;;;;;;;;;;5086188;28;20180;-69
2021/09/15 04:52:33;;;;;;;103.65;54.28;;;;;;;;;;5085485;28;20081;-69
2021/09/15 04:54:59;;;;;;;84.10;51.05;;;;;;;;;;5104176;28;20044;-69
2021/09/15 04:57:26;;;;;;;102.80;52.70;;;;;;;;;;5087036;28;20043;-70
2021/09/15 04:59:52;;;;;;;86.75;52.28;;;;;;;;;;5105407;28;21552;-69
2021/09/15 05:02:18;;;;;;;79.78;49.08;;;;;;;;;;5085240;28;20390;-69
2021/09/15 05:04:44;;;;;;;73.97;48.53;;;;;;;;;;5083858;28;20051;-69
2021/09/15 05:07:13;;;;;;;122.53;55.95;;;;;;;;;;5098060;28;20135;-69
2021/09/15 05:09:39;;;;;;;100.13;52.90;;;;;;;;;;5097169;28;20503;-69
2021/09/15 05:12:05;;;;;;;127.63;56.53;;;;;;;;;;5081760;28;20035;-69
2021/09/15 05:14:31;;;;;;;97.25;52.72;;;;;;;;;;5103175;28;20062;-69
2021/09/15 05:16:58;;;;;;;94.88;52.03;;;;;;;;;;5087219;28;20052;-69
2021/09/15 05:19:24;;;;;;;78.68;48.50;;;;;;;;;;5083249;28;20059;-69
2021/09/15 05:21:50;;;;;;;74.85;46.15;;;;;;;;;;5086312;28;20055;-69
2021/09/15 05:24:16;;;;;;;82.03;49.00;;;;;;;;;;5082042;28;20063;-69
2021/09/15 05:26:42;;;;;;;82.35;48.38;;;;;;;;;;5081458;28;20118;-69
2021/09/15 05:29:08;;;;;;;80.30;51.50;;;;;;;;;;5083231;28;20044;-70
2021/09/15 05:31:35;;;;;;;91.25;52.88;;;;;;;;;;5082064;28;20124;-69
2021/09/15 05:34:01;;;;;;;107.40;55.63;;;;;;;;;;5076829;28;20048;-69
2021/09/15 05:36:27;;;;;;;154.40;58.33;;;;;;;;;;5075012;28;20128;-69
2021/09/15 05:38:53;;;;;;;105.90;54.72;;;;;;;;;;5080374;28;20142;-70
2021/09/15 05:41:20;;;;;;;121.45;56.72;;;;;;;;;;5081741;28;20415;-69
2021/09/15 05:43:46;;;;;;;92.50;55.03;;;;;;;;;;5078390;28;20056;-69
2021/09/15 05:46:12;;;;;;;123.00;54.72;;;;;;;;;;5054981;28;20048;-68
2021/09/15 05:48:38;;;;;;;133.82;61.58;;;;;;;;;;5082381;28;20598;-69
2021/09/15 05:51:04;;;;;;;158.50;62.00;;;;;;;;;;5082332;28;20080;-69
2021/09/15 05:53:31;;;;;;;160.30;63.92;;;;;;;;;;5080227;28;20143;-69
2021/09/15 05:55:57;;;;;;;145.15;59.13;;;;;;;;;;5079877;28;20048;-68
2021/09/15 05:58:24;;;;;;;152.88;60.63;;;;;;;;;;5080731;28;20044;-69
2021/09/15 06:00:50;;;;;;;115.43;62.70;;;;;;;;;;5081332;28;20055;-68
2021/09/15 06:03:16;;;;;;;172.93;68.65;;;;;;;;;;5077708;28;20079;-70
2021/09/15 06:05:42;;;;;;;183.05;65.18;;;;;;;;;;5080030;28;20478;-70
2021/09/15 06:08:08;;;;;;;129.80;64.50;;;;;;;;;;5082154;28;20040;-70
2021/09/15 06:10:35;;;;;;;144.15;61.75;;;;;;;;;;5081221;28;20514;-70
2021/09/15 06:13:01;;;;;;;130.00;64.30;;;;;;;;;;5085908;28;20483;-69
2021/09/15 06:15:27;;;;;;;140.50;67.07;;;;;;;;;;5076640;28;20066;-70
2021/09/15 06:17:53;;;;;;;150.30;63.47;;;;;;;;;;5083388;28;20054;-69
2021/09/15 06:20:19;;;;;;;192.65;67.80;;;;;;;;;;5085230;28;20051;-70
2021/09/15 06:22:46;;;;;;;207.02;75.30;;;;;;;;;;5080267;28;20528;-71
2021/09/15 06:25:12;;;;;;;221.27;74.40;;;;;;;;;;5079296;28;20068;-71
2021/09/15 06:27:40;;;;;;;219.50;80.40;;;;;;;;;;5080500;28;20048;-71
2021/09/15 06:30:07;;;;;;;201.00;85.85;;;;;;;;;;5081950;28;20117;-71
2021/09/15 06:32:33;;;;;;;253.80;88.70;;;;;;;;;;5079833;28;20040;-70
2021/09/15 06:34:59;;;;;;;293.67;97.20;;;;;;;;;;5081843;28;20074;-69
2021/09/15 06:37:26;;;;;;;314.17;102.38;;;;;;;;;;5100321;28;20032;-69
2021/09/15 06:39:52;;;;;;;342.25;104.25;;;;;;;;;;5100453;28;20047;-69
2021/09/15 06:42:18;;;;;;;385.73;107.35;;;;;;;;;;5101695;28;20067;-70
2021/09/15 06:44:44;;;;;;;342.45;109.40;;;;;;;;;;5077855;28;20044;-70
2021/09/15 06:47:11;;;;;;;397.95;110.20;;;;;;;;;;5100006;28;20048;-70
2021/09/15 06:49:37;;;;;;;423.00;116.13;;;;;;;;;;5087618;28;20158;-70
2021/09/15 06:52:04;;;;;;;437.38;117.32;;;;;;;;;;5105639;28;20411;-70
2021/09/15 06:54:30;;;;;;;478.92;121.13;;;;;;;;;;5085226;28;20418;-70
2021/09/15 06:56:56;;;;;;;538.50;128.27;;;;;;;;;;5075402;28;20190;-70
2021/09/15 06:59:22;;;;;;;556.80;126.43;;;;;;;;;;5087922;28;20475;-70
2021/09/15 07:01:48;;;;;;;738.83;146.90;;;;;;;;;;5084350;28;20044;-70
2021/09/15 07:04:14;;;;;;;677.00;140.07;;;;;;;;;;5102132;28;20044;-69
2021/09/15 07:06:41;;;;;;;786.00;150.32;;;;;;;;;;5083136;28;20448;-69
2021/09/15 07:09:08;;;;;;;729.83;139.90;;;;;;;;;;5081945;28;20063;-69
2021/09/15 07:11:35;;;;;;;555.92;133.15;;;;;;;;;;5094882;28;20051;-69
2021/09/15 07:14:03;;;;;;;685.40;141.02;;;;;;;;;;5099757;28;20399;-69
2021/09/15 07:16:30;;;;;;;596.85;131.07;;;;;;;;;;5083471;28;20052;-69
2021/09/15 07:18:56;;;;;;;663.70;136.05;;;;;;;;;;5099520;28;20035;-69
2021/09/15 07:21:22;;;;;;;758.80;138.52;;;;;;;;;;5079514;28;20418;-69
2021/09/15 07:23:49;;;;;;;643.50;134.32;;;;;;;;;;5099906;28;20046;-69
2021/09/15 07:26:15;;;;;;;606.72;130.93;;;;;;;;;;5086727;28;20058;-69
2021/09/15 07:28:41;;;;;;;577.03;132.50;;;;;;;;;;5103680;28;20050;-69
2021/09/15 07:31:07;;;;;;;607.13;134.00;;;;;;;;;;5101945;28;20084;-69
2021/09/15 07:33:34;;;;;;;504.05;118.95;;;;;;;;;;5073969;28;20052;-69
2021/09/15 07:36:01;;;;;;;517.05;127.05;;;;;;;;;;5088349;28;20157;-70
2021/09/15 07:38:27;;;;;;;451.20;120.32;;;;;;;;;;5058730;28;20056;-69
2021/09/15 07:40:54;;;;;;;515.88;124.50;;;;;;;;;;5060075;28;20036;-69
2021/09/15 07:43:20;;;;;;;416.92;115.07;;;;;;;;;;5063016;28;20098;-69
2021/09/15 07:45:46;;;;;;;431.55;119.43;;;;;;;;;;5088410;28;20040;-69
2021/09/15 07:48:12;;;;;;;403.77;114.13;;;;;;;;;;5072070;28;20119;-69
2021/09/15 07:50:38;;;;;;;386.10;112.90;;;;;;;;;;5072335;28;20051;-69
2021/09/15 07:53:04;;;;;;;359.50;104.38;;;;;;;;;;5070087;28;20036;-69
2021/09/15 07:55:31;;;;;;;338.30;102.38;;;;;;;;;;5072655;28;20059;-70
2021/09/15 07:57:57;;;;;;;369.08;105.28;;;;;;;;;;5072565;28;20043;-69
2021/09/15 08:00:23;;;;;;;363.33;104.95;;;;;;;;;;5070151;28;20036;-69
2021/09/15 08:02:49;;;;;;;323.85;100.38;;;;;;;;;;5089786;28;20044;-69
2021/09/15 08:05:16;;;;;;;311.98;100.80;;;;;;;;;;5068559;28;20055;-69
2021/09/15 08:07:42;;;;;;;300.15;99.00;;;;;;;;;;5071428;28;20071;-69
2021/09/15 08:10:09;;;;;;;314.45;99.63;;;;;;;;;;5072347;28;20032;-69
2021/09/15 08:12:35;;;;;;;268.45;92.70;;;;;;;;;;5072074;28;20519;-69
2021/09/15 08:15:01;;;;;;;269.77;93.68;;;;;;;;;;5089232;28;20085;-69
2021/09/15 08:17:28;;;;;;;229.15;86.57;;;;;;;;;;5072419;28;20189;-69
2021/09/15 08:19:54;;;;;;;257.10;93.75;;;;;;;;;;5071835;28;20059;-69
2021/09/15 08:22:20;;;;;;;247.40;93.43;;;;;;;;;;5075531;28;20048;-69
2021/09/15 08:24:46;;;;;;;253.68;92.47;;;;;;;;;;5094527;28;20124;-69
2021/09/15 08:27:13;;;;;;;247.50;91.22;;;;;;;;;;5094454;28;20058;-69
2021/09/15 08:29:39;;;;;;;238.43;87.15;;;;;;;;;;5075422;28;20044;-69
2021/09/15 08:32:07;;;;;;;243.55;89.78;;;;;;;;;;5094321;28;20032;-69
2021/09/15 08:34:33;;;;;;;250.82;92.82;;;;;;;;;;5101104;28;20060;-69
2021/09/15 08:37:00;;;;;;;261.85;95.43;;;;;;;;;;5109856;28;20047;-69
2021/09/15 08:39:26;;;;;;;230.80;86.38;;;;;;;;;;5087096;28;20040;-69
2021/09/15 08:41:53;;;;;;;232.43;91.55;;;;;;;;;;5086793;28;20100;-69
2021/09/15 08:44:19;;;;;;;210.52;84.30;;;;;;;;;;5086224;28;20054;-69
2021/09/15 08:46:46;;;;;;;241.57;90.25;;;;;;;;;;5090607;28;20051;-69
2021/09/15 08:49:12;;;;;;;216.32;85.18;;;;;;;;;;5082992;28;20486;-69
2021/09/15 08:51:38;;;;;;;238.02;91.95;;;;;;;;;;5089831;28;20117;-69
2021/09/15 08:54:05;;;;;;;223.90;87.90;;;;;;;;;;5109428;28;20054;-69
2021/09/15 08:56:31;;;;;;;241.63;89.47;;;;;;;;;;5099698;28;20423;-69
2021/09/15 08:58:57;;;;;;;238.98;88.97;;;;;;;;;;5085686;28;20122;-69
2021/09/15 09:01:24;;;;;;;262.58;93.60;;;;;;;;;;5109544;28;20031;-69
2021/09/15 09:03:52;;;;;;;260.27;91.32;;;;;;;;;;5101978;28;20112;-69
2021/09/15 09:06:21;;;;;;;225.80;85.00;;;;;;;;;;5087213;28;20040;-69
2021/09/15 09:08:52;;;;;;;228.65;87.53;;;;;;;;;;5093809;28;20104;-69
2021/09/15 09:11:21;;;;;;;239.73;88.55;;;;;;;;;;5070527;28;20032;-69
2021/09/15 09:13:51;;;;;;;238.43;91.22;;;;;;;;;;5082369;28;20403;-69
2021/09/15 09:16:20;;;;;;;219.55;86.20;;;;;;;;;;5089662;28;20036;-69
2021/09/15 09:19:00;;;;;;;229.30;87.03;;;;;;;;;;5101964;28;20470;-69
2021/09/15 09:21:28;;;;;;;216.57;85.70;;;;;;;;;;5104622;28;20086;-69
2021/09/15 09:23:57;;;;;;;226.43;85.63;;;;;;;;;;5089316;28;20047;-69
2021/09/15 09:26:23;;;;;;;204.85;82.55;;;;;;;;;;5085293;28;20058;-69
2021/09/15 09:28:50;;;;;;;198.23;80.57;;;;;;;;;;5083740;28;20040;-69
2021/09/15 09:31:17;;;;;;;185.07;79.35;;;;;;;;;;5099637;28;20060;-69
2021/09/15 09:33:43;;;;;;;208.25;81.60;;;;;;;;;;5084496;28;20040;-69
2021/09/15 09:36:10;;;;;;;214.35;81.43;;;;;;;;;;5086423;28;20055;-69
2021/09/15 09:38:38;;;;;;;200.50;80.60;;;;;;;;;;5089536;28;20063;-69
2021/09/15 09:41:06;;;;;;;180.25;75.57;;;;;;;;;;5087883;28;20048;-69
2021/09/15 09:43:34;;;;;;;198.13;82.05;;;;;;;;;;5101715;28;20540;-70
2021/09/15 09:46:00;;;;;;;171.50;75.80;;;;;;;;;;5088063;28;20051;-70
2021/09/15 09:48:30;;;;;;;171.68;76.82;;;;;;;;;;5088110;28;20403;-69
2021/09/15 09:50:57;;;;;;;188.02;79.07;;;;;;;;;;5089425;28;20055;-69
2021/09/15 09:53:23;;;;;;;162.07;72.85;;;;;;;;;;5099336;28;20032;-69
2021/09/15 09:55:50;;;;;;;156.02;70.10;;;;;;;;;;5100829;28;20043;-69
2021/09/15 09:58:22;;;;;;;147.52;69.20;;;;;;;;;;5067500;28;20039;-69
2021/09/15 10:00:48;;;;;;;147.55;67.97;;;;;;;;;;5084767;28;20063;-69
2021/09/15 10:03:15;;;;;;;148.75;69.28;;;;;;;;;;5099882;28;20067;-69
2021/09/15 10:05:41;;;;;;;126.65;61.75;;;;;;;;;;5086105;28;20441;-69
2021/09/15 10:08:08;;;;;;;114.22;59.17;;;;;;;;;;5082272;28;20070;-69
2021/09/15 10:10:35;;;;;;;102.88;54.78;;;;;;;;;;5083096;28;20081;-68
2021/09/15 10:13:02;;;;;;;101.22;54.72;;;;;;;;;;5102815;28;20032;-68
2021/09/15 10:15:28;;;;;;;106.45;56.03;;;;;;;;;;5080919;28;20039;-68
2021/09/15 10:17:56;;;;;;;104.10;56.20;;;;;;;;;;5084534;28;20491;-68
2021/09/15 10:20:25;;;;;;;116.93;57.25;;;;;;;;;;5086758;28;20040;-68
2021/09/15 10:22:51;;;;;;;116.30;57.03;;;;;;;;;;5099974;28;20132;-68
2021/09/15 10:25:20;;;;;;;110.70;54.80;;;;;;;;;;5080906;28;20047;-68
2021/09/15 10:28:01;;;;;;;116.28;56.45;;;;;;;;;;5098182;28;20438;-68
2021/09/15 10:30:44;;;;;;;119.72;60.00;;;;;;;;;;5082901;28;20040;-68
2021/09/15 10:33:29;;;;;;;111.72;57.22;;;;;;;;;;5077854;28;20113;-68
2021/09/15 10:35:55;;;;;;;110.63;57.25;;;;;;;;;;5080712;28;20448;-68
2021/09/15 10:38:41;;;;;;;117.93;59.08;;;;;;;;;;5105446;28;20057;-68
2021/09/15 10:41:26;;;;;;;98.78;52.28;;;;;;;;;;5102394;28;20165;-68
2021/09/15 10:44:03;;;;;;;95.13;51.22;;;;;;;;;;5081091;28;20082;-69
2021/09/15 10:46:30;;;;;;;84.75;47.72;;;;;;;;;;5082496;28;20221;-68
2021/09/15 10:49:15;;;;;;;83.43;46.05;;;;;;;;;;5080313;28;20044;-69
2021/09/15 10:51:41;;;;;;;78.97;45.45;;;;;;;;;;5101384;28;20070;-69
2021/09/15 10:54:26;;;;;;;88.70;46.63;;;;;;;;;;5098595;28;20075;-69
2021/09/15 10:57:11;;;;;;;76.53;42.88;;;;;;;;;;5081741;28;20043;-69
2021/09/15 10:59:49;;;;;;;67.47;40.95;;;;;;;;;;5081203;28;20108;-69
2021/09/15 11:02:23;;;;;;;74.07;42.60;;;;;;;;;;5082651;28;20082;-69
2021/09/15 11:04:49;;;;;;;63.10;38.67;;;;;;;;;;5082908;28;20058;-69
2021/09/15 11:07:34;;;;;;;72.20;40.80;;;;;;;;;;5081637;28;20039;-69
2021/09/15 11:10:00;;;;;;;68.20;40.00;;;;;;;;;;5098961;28;20115;-69
2021/09/15 11:12:46;;;;;;;61.25;38.42;;;;;;;;;;5086988;28;20059;-68
2021/09/15 11:15:25;;;;;;;58.60;36.20;;;;;;;;;;5083224;28;20391;-68
2021/09/15 11:17:51;;;;;;;45.85;32.42;;;;;;;;;;5087857;28;20047;-70
2021/09/15 11:20:19;;;;;;;57.53;35.78;;;;;;;;;;5095947;28;20222;-69
2021/09/15 11:22:47;;;;;;;39.85;30.42;;;;;;;;;;5099242;28;20479;-69
2021/09/15 11:25:18;;;;;;;43.30;30.98;;;;;;;;;;5096409;28;20456;-69
2021/09/15 11:28:04;;;;;;;37.92;28.20;;;;;;;;;;5103089;28;20044;-69
2021/09/15 11:30:30;;;;;;;36.20;27.15;;;;;;;;;;5078640;28;20089;-69
2021/09/15 11:32:57;;;;;;;36.72;28.35;;;;;;;;;;5103805;28;20039;-69
2021/09/15 11:35:24;;;;;;;32.47;25.80;;;;;;;;;;5068017;28;20053;-69
2021/09/15 11:37:50;;;;;;;33.83;24.15;;;;;;;;;;5057426;28;20053;-69
2021/09/15 11:40:17;;;;;;;29.92;23.77;;;;;;;;;;5060536;28;20481;-69
2021/09/15 11:42:43;;;;;;;30.20;22.15;;;;;;;;;;5076347;28;20040;-69
2021/09/15 11:45:11;;;;;;;26.77;21.65;;;;;;;;;;5072387;28;20113;-69
2021/09/15 11:47:37;;;;;;;24.83;20.75;;;;;;;;;;5084564;28;20058;-69
2021/09/15 11:50:14;;;;;;;26.73;20.25;;;;;;;;;;5070806;28;20048;-69
2021/09/15 11:52:43;;;;;;;22.13;17.98;;;;;;;;;;5081704;28;20042;-69
2021/09/15 11:55:11;;;;;;;22.70;18.05;;;;;;;;;;5067032;28;20119;-69
2021/09/15 11:57:45;;;;;;;25.65;17.38;;;;;;;;;;5059508;28;20075;-69
2021/09/15 12:00:12;;;;;;;19.38;16.50;;;;;;;;;;5080923;28;20051;-69
2021/09/15 12:02:40;;;;;;;18.95;16.00;;;;;;;;;;5060280;28;20045;-69
2021/09/15 12:05:06;;;;;;;22.40;16.08;;;;;;;;;;5061861;28;20059;-69
2021/09/15 12:07:33;;;;;;;20.48;16.77;;;;;;;;;;5062087;28;20051;-69
2021/09/15 12:09:59;;;;;;;18.23;15.88;;;;;;;;;;5068330;28;20054;-69
2021/09/15 12:12:29;;;;;;;18.55;15.50;;;;;;;;;;5075463;28;20036;-69
2021/09/15 12:14:57;;;;;;;18.50;14.23;;;;;;;;;;5062057;28;20124;-69
2021/09/15 12:17:23;;;;;;;18.80;13.75;;;;;;;;;;5087219;28;20039;-69
2021/09/15 12:19:51;;;;;;;15.68;13.40;;;;;;;;;;5063476;28;20052;-69
2021/09/15 12:22:19;;;;;;;15.32;12.93;;;;;;;;;;5086312;28;20040;-69
2021/09/15 12:24:58;;;;;;;16.98;13.32;;;;;;;;;;5068349;28;20490;-69
2021/09/15 12:27:24;;;;;;;14.55;12.98;;;;;;;;;;5071556;28;20045;-69
2021/09/15 12:29:58;;;;;;;17.95;14.52;;;;;;;;;;5056353;28;20114;-69
2021/09/15 12:32:29;;;;;;;19.45;15.40;;;;;;;;;;5063195;28;20486;-69
2021/09/15 12:34:55;;;;;;;19.00;15.63;;;;;;;;;;5095490;28;20464;-69
2021/09/15 12:37:21;;;;;;;15.95;14.23;;;;;;;;;;5084108;28;20052;-69
2021/09/15 12:39:52;;;;;;;14.55;11.70;;;;;;;;;;5083333;28;20055;-69
2021/09/15 12:42:19;;;;;;;14.57;10.82;;;;;;;;;;5103594;28;20132;-69
2021/09/15 12:44:46;;;;;;;15.00;10.48;;;;;;;;;;5106835;28;20047;-69
2021/09/15 12:47:12;;;;;;;12.13;9.77;;;;;;;;;;5106310;28;20465;-69
2021/09/15 12:49:39;;;;;;;14.50;10.70;;;;;;;;;;5085797;28;20063;-69
2021/09/15 12:52:07;;;;;;;14.35;10.88;;;;;;;;;;5085067;28;20491;-69
2021/09/15 12:54:34;;;;;;;18.77;11.23;;;;;;;;;;5078546;28;20121;-69
2021/09/15 12:57:14;;;;;;;12.40;10.27;;;;;;;;;;5098474;28;20047;-69
2021/09/15 12:59:40;;;;;;;13.00;8.90;;;;;;;;;;5081502;28;20636;-69
2021/09/15 13:02:17;;;;;;;8.38;6.88;;;;;;;;;;5085995;28;20090;-69
2021/09/15 13:04:43;;;;;;;10.68;7.35;;;;;;;;;;5097484;28;20524;-69
2021/09/15 13:07:10;;;;;;;8.77;6.70;;;;;;;;;;5088678;28;20497;-69
2021/09/15 13:09:36;;;;;;;8.85;7.10;;;;;;;;;;5071885;28;20062;-69
2021/09/15 13:12:02;;;;;;;14.27;9.82;;;;;;;;;;5110974;28;20051;-69
2021/09/15 13:14:28;;;;;;;13.25;11.15;;;;;;;;;;5113098;28;20031;-69
2021/09/15 13:16:54;;;;;;;13.45;11.55;;;;;;;;;;5086804;28;20043;-69
2021/09/15 13:19:20;;;;;;;14.73;10.88;;;;;;;;;;5104307;28;20047;-69
2021/09/15 13:21:47;;;;;;;13.55;10.75;;;;;;;;;;5109416;28;20039;-69
2021/09/15 13:24:13;;;;;;;12.40;11.07;;;;;;;;;;5086205;28;20040;-69
2021/09/15 13:26:39;;;;;;;14.35;11.52;;;;;;;;;;5101924;28;20056;-69
2021/09/15 13:29:05;;;;;;;11.95;10.55;;;;;;;;;;5078136;28;20035;-69
2021/09/15 13:31:32;;;;;;;16.52;12.13;;;;;;;;;;5103606;28;20043;-69
2021/09/15 13:33:58;;;;;;;14.25;12.40;;;;;;;;;;5082465;28;20406;-69
2021/09/15 13:36:24;;;;;;;16.40;13.38;;;;;;;;;;5103056;28;20123;-69
2021/09/15 13:38:50;;;;;;;18.70;15.05;;;;;;;;;;5078121;28;20483;-69
2021/09/15 13:41:17;;;;;;;19.63;16.70;;;;;;;;;;5109894;28;20118;-69
2021/09/15 13:43:43;;;;;;;23.20;19.08;;;;;;;;;;5088655;28;20099;-69
2021/09/15 13:46:09;;;;;;;28.15;20.48;;;;;;;;;;5108865;28;20036;-69
2021/09/15 13:48:35;;;;;;;24.95;18.60;;;;;;;;;;5087672;28;20036;-69
2021/09/15 13:51:01;;;;;;;20.85;17.35;;;;;;;;;;5107936;28;20554;-69
2021/09/15 13:53:27;;;;;;;18.00;12.45;;;;;;;;;;5103659;28;20088;-69
2021/09/15 13:55:54;;;;;;;16.75;10.52;;;;;;;;;;5109977;28;20051;-69
2021/09/15 13:58:20;;;;;;;14.18;6.55;;;;;;;;;;5083424;28;20047;-70
2021/09/15 14:00:46;;;;;;;10.02;4.57;;;;;;;;;;5106497;28;20145;-69
2021/09/15 14:03:12;;;;;;;6.95;2.83;;;;;;;;;;5082049;28;20040;-68
2021/09/15 14:05:38;;;;;;;6.25;2.20;;;;;;;;;;5110716;28;20375;-68
2021/09/15 14:08:05;;;;;;;6.30;1.88;;;;;;;;;;5090262;28;20070;-68
2021/09/15 14:10:31;;;;;;;5.30;1.40;;;;;;;;;;5085999;28;20048;-68
2021/09/15 14:12:58;;;;;;;4.63;1.30;;;;;;;;;;5084397;28;20503;-68
2021/09/15 14:15:25;;;;;;;7.57;1.40;;;;;;;;;;5108319;28;20084;-69
2021/09/15 14:17:51;;;;;;;7.88;1.60;;;;;;;;;;5078462;28;20036;-70
2021/09/15 14:20:18;;;;;;;6.93;1.70;;;;;;;;;;5081036;28;20056;-68